Terminal Aerodrome Forecast
Issued by NWS Twin Cities, MN

Home | Current Version | Previous Version | Text Only | Print | Product List | Glossary On
Versions: 1 2 3 4 5 6 7 8 9 10 11 12 13 14 15 16 17 18 19 20 21 22 23 24 25 26 27 28
955
FTUS43 KMPX 021739
TAFMSP
TAF
KMSP 021739Z 0218/0324 29007KT P6SM OVC027
     FM031200 23004KT P6SM OVC035
     FM032100 17004KT P6SM BKN050=

USA.gov is the U.S. government's official web portal to all federal, state and local government web resources and services.